Flight Track Log - Related Links

Times and Time Zones

All times are in EDT time to prevent confusion due to time zone crossing. See the UPS844 flight status page for this flight to view local times or setup timezone preferences in your user account.

Time Position Orientation Groundspeed Altitude Reporting Facility
EDT Latitude Longitude Course Direction KTS MPH feet Rate Location/Type
Fri 03:40:22 AM 38.1530 -85.7390 164° South 169 194 1,700  Level FlightAware ADS-B
Fri 03:40:57 AM 38.1250 -85.7430 186° South 175 201 3,400 2,308 Climbing FlightAware ADS-B
Fri 03:41:27 AM 38.0970 -85.7480 188° South 214 246 4,200 1,500 Climbing FlightAware ADS-B
Fri 03:41:37 AM 38.0870 -85.7530 201° Southwest 229 264 4,400 1,440 Climbing FlightAware ADS-B
Fri 03:41:52 AM 38.0760 -85.7660 223° Southwest 245 282 4,800 2,000 Climbing FlightAware ADS-B
Fri 03:42:07 AM 38.0700 -85.7890 252° West 267 307 5,400 2,600 Climbing FlightAware ADS-B
Fri 03:42:22 AM 38.0730 -85.8110 280° West 272 313 6,100 2,933 Climbing FlightAware ADS-B
Fri 03:42:52 AM 38.0830 -85.8590 285° West 286 329 7,600 3,164 Climbing FlightAware ADS-B
Fri 03:43:17 AM 38.0920 -85.8990 286° West 289 333 9,000 2,829 Climbing FlightAware ADS-B
Fri 03:44:02 AM 38.1090 -85.9730 286° West 311 358 10,900 1,950 Climbing FlightAware ADS-B
Fri 03:44:37 AM 38.1240 -86.0400 286° West 354 407 11,600 2,188 Climbing FlightAware ADS-B
Fri 03:45:27 AM 38.1470 -86.1450 286° West 361 415 14,000 2,267 Climbing FlightAware ADS-B
Fri 03:46:07 AM 38.1650 -86.2280 285° West 390 449 15,000 1,575 Climbing FlightAware ADS-B
Fri 03:46:47 AM 38.1850 -86.3170 286° West 412 474 16,100 1,906 Climbing FlightAware ADS-B
Fri 03:47:32 AM 38.2090 -86.4260 286° West 425 489 17,700 2,118 Climbing FlightAware ADS-B
Fri 03:48:12 AM 38.2310 -86.5260 286° West 435 501 19,100 2,047 Climbing FlightAware ADS-B
Fri 03:48:57 AM 38.2540 -86.6360 285° West 442 509 20,600 1,976 Climbing FlightAware ADS-B
Fri 03:49:37 AM 38.2770 -86.7400 286° West 450 518 21,900 1,835 Climbing FlightAware ADS-B
Fri 03:50:22 AM 38.3020 -86.8560 285° West 458 527 23,200 1,694 Climbing FlightAware ADS-B
Fri 03:51:02 AM 38.3240 -86.9610 285° West 467 537 24,300 1,650 Climbing FlightAware ADS-B
Fri 03:51:42 AM 38.3480 -87.0710 286° West 472 543 25,400 1,412 Climbing FlightAware ADS-B
Fri 03:52:27 AM 38.3720 -87.1870 285° West 480 552 26,300 1,553 Climbing FlightAware ADS-B
Fri 03:53:07 AM 38.3950 -87.2960 285° West 476 548 27,600 1,950 Climbing FlightAware ADS-B
Fri 03:53:47 AM 38.4180 -87.4040 285° West 468 539 28,900 1,835 Climbing FlightAware ADS-B
Fri 03:54:32 AM 38.4430 -87.5250 285° West 463 533 30,200 1,694 Climbing FlightAware ADS-B
Fri 03:55:12 AM 38.4650 -87.6310 285° West 457 526 31,300 1,350 Climbing FlightAware ADS-B
Fri 03:55:52 AM 38.4860 -87.7350 284° West 459 528 32,000 525 Climbing FlightAware ADS-B
Fri 03:56:32 AM 38.5070 -87.8370 285° West 457 526 32,000  Level FlightAware ADS-B
Fri 03:57:17 AM 38.5320 -87.9560 285° West 453 521 32,000  Level FlightAware ADS-B
Fri 03:58:02 AM 38.5560 -88.0760 284° West 452 520 32,000  Level FlightAware ADS-B
Fri 03:58:42 AM 38.5760 -88.1740 285° West 452 520 32,000  Level FlightAware ADS-B
Fri 03:59:27 AM 38.6000 -88.2930 285° West 454 522 32,000  Level FlightAware ADS-B
Fri 04:00:07 AM 38.6210 -88.3970 285° West 455 524 32,000  Level FlightAware ADS-B
Fri 04:00:47 AM 38.6420 -88.5040 284° West 455 524 32,000  Level FlightAware ADS-B
Fri 04:01:27 AM 38.6620 -88.6060 284° West 455 524 32,000  Level FlightAware ADS-B
Fri 04:02:12 AM 38.6860 -88.7260 284° West 454 522 32,000  Level FlightAware ADS-B
Fri 04:02:57 AM 38.7090 -88.8430 284° West 453 521 32,000  Level FlightAware ADS-B
Fri 04:03:37 AM 38.7280 -88.9410 284° West 452 520 32,000  Level FlightAware ADS-B
Fri 04:04:17 AM 38.7480 -89.0480 284° West 451 519 32,000  Level FlightAware ADS-B
Fri 04:05:02 AM 38.7710 -89.1670 284° West 450 518 32,000  Level FlightAware ADS-B
Fri 04:05:42 AM 38.7910 -89.2680 284° West 451 519 32,000  Level FlightAware ADS-B
Fri 04:06:27 AM 38.8130 -89.3820 284° West 452 520 32,000  Level FlightAware ADS-B
Fri 04:07:07 AM 38.8320 -89.4810 284° West 453 521 32,000  Level FlightAware ADS-B
Fri 04:07:47 AM 38.8520 -89.5910 283° West 454 522 32,000  Level FlightAware ADS-B
Fri 04:08:32 AM 38.8750 -89.7120 284° West 457 526 32,000  Level FlightAware ADS-B
Fri 04:09:12 AM 38.8940 -89.8150 283° West 458 527 32,000  Level FlightAware ADS-B
Fri 04:09:57 AM 38.9150 -89.9260 284° West 457 526 32,000  Level FlightAware ADS-B
Fri 04:10:37 AM 38.9360 -90.0400 283° West 458 527 32,000  Level FlightAware ADS-B
Fri 04:11:17 AM 38.9560 -90.1510 283° West 461 531 32,000  Level FlightAware ADS-B
Fri 04:11:57 AM 38.9750 -90.2550 283° West 461 531 32,000  Level FlightAware ADS-B
Fri 04:12:42 AM 38.9970 -90.3730 284° West 465 535 32,000  Level FlightAware ADS-B
Fri 04:13:27 AM 39.0180 -90.4940 283° West 466 536 32,000  Level FlightAware ADS-B
Fri 04:14:07 AM 39.0380 -90.6020 283° West 467 537 32,000  Level FlightAware ADS-B
Fri 04:14:52 AM 39.0600 -90.7270 283° West 467 537 32,000  Level FlightAware ADS-B
Fri 04:15:22 AM 39.0740 -90.8060 283° West 468 539 32,000  Level FlightAware ADS-B
Fri 04:16:12 AM 39.0980 -90.9440 283° West 468 539 32,000  Level FlightAware ADS-B
Fri 04:16:52 AM 39.1170 -91.0500 283° West 468 539 32,000  Level FlightAware ADS-B
Fri 04:17:37 AM 39.1380 -91.1700 283° West 466 536 32,000  Level FlightAware ADS-B
Fri 04:18:17 AM 39.1570 -91.2800 283° West 463 533 32,000  Level FlightAware ADS-B
Fri 04:19:02 AM 39.1780 -91.4050 282° West 464 534 32,000  Level FlightAware ADS-B
Fri 04:19:42 AM 39.1950 -91.5100 282° West 469 540 32,000  Level FlightAware ADS-B
Fri 04:20:27 AM 39.2170 -91.6360 283° West 468 539 32,000  Level FlightAware ADS-B
Fri 04:21:07 AM 39.2350 -91.7420 282° West 466 536 32,000  Level FlightAware ADS-B
Fri 04:21:47 AM 39.2530 -91.8480 282° West 466 536 32,000  Level FlightAware ADS-B
Fri 04:22:27 AM 39.2700 -91.9550 282° West 468 539 32,000  Level FlightAware ADS-B
Fri 04:23:12 AM 39.2900 -92.0780 282° West 468 539 32,000  Level FlightAware ADS-B
Fri 04:23:52 AM 39.3060 -92.1710 283° West 468 539 32,000  Level FlightAware ADS-B
Fri 04:24:32 AM 39.3210 -92.2640 282° West 468 539 32,000  Level FlightAware ADS-B
Fri 04:25:22 AM 39.3490 -92.4330 282° West 460 529 32,000  Level FlightAware ADS-B
Fri 04:25:57 AM 39.3620 -92.5210 281° West 460 529 32,000  Level FlightAware ADS-B
Fri 04:26:42 AM 39.3840 -92.6500 282° West 461 531 32,000  Level FlightAware ADS-B
Fri 04:27:27 AM 39.4030 -92.7740 281° West 462 532 32,000  Level FlightAware ADS-B
Fri 04:28:07 AM 39.4200 -92.8830 281° West 464 534 32,000  Level FlightAware ADS-B
Fri 04:28:47 AM 39.4370 -92.9880 282° West 463 533 32,000  Level FlightAware ADS-B
Fri 04:29:32 AM 39.4560 -93.1130 281° West 461 531 32,000  Level FlightAware ADS-B
Fri 04:30:07 AM 39.4700 -93.2020 282° West 462 532 32,000  Level FlightAware ADS-B
Fri 04:30:57 AM 39.4920 -93.3410 282° West 466 536 32,000  Level FlightAware ADS-B
Fri 04:31:37 AM 39.5090 -93.4560 281° West 467 537 32,000  Level FlightAware ADS-B
Fri 04:32:17 AM 39.5260 -93.5660 281° West 468 539 32,000  Level FlightAware ADS-B
Fri 04:33:02 AM 39.5440 -93.6870 281° West 469 540 32,000  Level FlightAware ADS-B
Fri 04:33:42 AM 39.5600 -93.7970 281° West 471 542 32,000  Level FlightAware ADS-B
Fri 04:34:27 AM 39.5790 -93.9250 281° West 474 545 32,000  Level FlightAware ADS-B
Fri 04:35:07 AM 39.5960 -94.0370 281° West 473 544 32,000  Level FlightAware ADS-B
Fri 04:35:47 AM 39.6120 -94.1510 280° West 472 543 32,000  Level FlightAware ADS-B
Fri 04:36:32 AM 39.6300 -94.2730 281° West 469 540 32,000  Level FlightAware ADS-B
Fri 04:37:12 AM 39.6460 -94.3830 281° West 468 539 32,000  Level FlightAware ADS-B
Fri 04:37:57 AM 39.6640 -94.5100 280° West 467 537 32,000  Level FlightAware ADS-B
Fri 04:38:37 AM 39.6790 -94.6150 281° West 469 540 32,000  Level FlightAware ADS-B
Fri 04:39:17 AM 39.6950 -94.7320 280° West 471 542 32,000  Level FlightAware ADS-B
Fri 04:40:02 AM 39.7120 -94.8520 280° West 474 545 32,000  Level FlightAware ADS-B
Fri 04:40:42 AM 39.7280 -94.9670 280° West 474 545 32,000  Level FlightAware ADS-B
Fri 04:41:27 AM 39.7460 -95.0960 280° West 476 548 32,000  Level FlightAware ADS-B
Fri 04:42:07 AM 39.7300 -94.9810 100° East 474 545 32,000  Level FlightAware ADS-B
Fri 04:42:47 AM 39.7460 -95.0960 280° West 476 548 32,000  Level FlightAware ADS-B
Fri 04:43:32 AM 39.7640 -95.2290 280° West 477 549 32,000  Level FlightAware ADS-B
Fri 04:44:12 AM 39.7770 -95.3250 280° West 477 549 32,000  Level FlightAware ADS-B
Fri 04:44:52 AM 39.7960 -95.4660 280° West 477 549 32,000  Level FlightAware ADS-B
Fri 04:45:37 AM 39.8130 -95.5920 280° West 476 548 32,000  Level FlightAware ADS-B
Fri 04:46:17 AM 39.8220 -95.6630 279° West 475 547 32,000  Level FlightAware ADS-B
Fri 04:47:02 AM 39.8340 -95.7530 280° West 475 547 32,000  Level FlightAware ADS-B
Fri 04:47:42 AM 39.8450 -95.8320 280° West 475 547 32,000  Level FlightAware ADS-B
Fri 04:48:22 AM 39.8530 -95.9020 278° West 476 548 32,000  Level FlightAware ADS-B
Fri 04:48:57 AM 39.8640 -95.9860 280° West 475 547 32,000  Level FlightAware ADS-B
Fri 04:49:57 AM 39.8930 -96.2110 280° West 474 545 32,000  Level FlightAware ADS-B
Fri 04:50:37 AM 39.9120 -96.3650 279° West 472 543 32,000  Level FlightAware ADS-B
Fri 04:51:32 AM 39.9320 -96.5270 279° West 469 540 32,000  Level FlightAware ADS-B
Fri 04:52:22 AM 39.9470 -96.6460 279° West 469 540 32,000  Level FlightAware ADS-B
Fri 04:53:02 AM 39.9580 -96.7410 279° West 469 540 32,000  Level FlightAware ADS-B
Fri 04:53:42 AM 39.9700 -96.8360 279° West 469 540 32,000  Level FlightAware ADS-B
Fri 04:54:22 AM 39.9810 -96.9310 279° West 469 540 32,000  Level FlightAware ADS-B
Fri 04:55:02 AM 39.9930 -97.0260 279° West 469 540 32,000  Level FlightAware ADS-B
Fri 04:55:52 AM 40.0260 -97.3040 279° West 475 547 32,000  Level FlightAware ADS-B
Fri 04:56:47 AM 40.0450 -97.4650 279° West 473 544 32,000  Level FlightAware ADS-B
Fri 04:57:42 AM 40.0610 -97.6130 278° West 472 543 32,000  Level FlightAware ADS-B
Fri 04:58:22 AM 40.0720 -97.7090 279° West 472 543 32,000  Level FlightAware ADS-B
Fri 04:59:02 AM 40.0820 -97.8050 278° West 472 543 32,000  Level FlightAware ADS-B
Fri 04:59:42 AM 40.0920 -97.9020 278° West 472 543 32,000  Level FlightAware ADS-B
Fri 05:00:32 AM 40.1050 -98.0220 278° West 472 543 32,000  Level FlightAware ADS-B
Fri 05:01:12 AM 40.1150 -98.1180 278° West 472 543 32,000  Level FlightAware ADS-B
Fri 05:01:52 AM 40.1260 -98.2140 279° West 472 543 32,000  Level FlightAware ADS-B
Fri 05:02:32 AM 40.1360 -98.3100 278° West 472 543 32,000  Level FlightAware ADS-B
Fri 05:03:12 AM 40.1460 -98.4060 278° West 472 543 32,000  Level FlightAware ADS-B
Fri 05:04:02 AM 40.1590 -98.5270 278° West 472 543 32,000  Level FlightAware ADS-B
Fri 05:04:42 AM 40.1700 -98.6230 279° West 472 543 32,000  Level FlightAware ADS-B
Fri 05:05:22 AM 40.1800 -98.7190 278° West 472 543 32,000  Level FlightAware ADS-B
Fri 05:06:02 AM 40.1900 -98.8150 278° West 472 543 32,000  Level FlightAware ADS-B
Fri 05:06:42 AM 40.2010 -98.9110 279° West 472 543 32,000  Level FlightAware ADS-B
Fri 05:07:18 AM 40.2500 -99.4039 279° West 457 526 32,000  Level Minneapolis Center
Fri 05:07:35 AM 40.2569 -99.4700 278° West 456 525 32,000  Level Denver Center
Fri 05:08:35 AM 40.2719 -99.6342 277° West 454 522 32,000  Level Denver Center
Fri 05:09:35 AM 40.2886 -99.7972 278° West 451 519 32,000  Level Denver Center
Fri 05:10:36 AM 40.3017 -99.9408 277° West 451 519 32,000  Level Denver Center
Fri 05:11:36 AM 40.3183 -100.1219 277° West 449 517 32,000  Level Denver Center
Fri 05:12:36 AM 40.3317 -100.2783 276° West 451 519 32,000  Level Denver Center
Fri 05:13:37 AM 40.3464 -100.4308 277° West 443 510 32,000  Level Denver Center
Fri 05:19:46 AM 40.4305 -101.4290 277° West 434 499 32,000  Level FlightAware ADS-B
Fri 05:20:17 AM 40.4369 -101.5080 276° West 432 497 32,000  Level FlightAware ADS-B
Fri 05:20:47 AM 40.4431 -101.5880 276° West 432 497 32,000  Level FlightAware ADS-B
Fri 05:21:17 AM 40.4494 -101.6670 276° West 434 499 32,000  Level FlightAware ADS-B
Fri 05:21:47 AM 40.4556 -101.7460 276° West 438 504 32,000  Level FlightAware ADS-B
Fri 05:22:17 AM 40.4617 -101.8250 276° West 440 506 32,000  Level FlightAware ADS-B
Fri 05:22:48 AM 40.4678 -101.9070 276° West 438 504 32,000  Level FlightAware ADS-B
Fri 05:23:18 AM 40.4737 -101.9860 276° West 434 499 32,000  Level FlightAware ADS-B
Fri 05:23:49 AM 40.4797 -102.0650 276° West 432 497 32,000 -98 Level FlightAware ADS-B
Fri 05:24:19 AM 40.4856 -102.1450 276° West 431 496 31,900 -98 Descending FlightAware ADS-B
Fri 05:24:50 AM 40.4915 -102.2260 275° West 431 496 31,900 98 Level FlightAware ADS-B
Fri 05:25:20 AM 40.4973 -102.3040 276° West 432 497 32,000 98 Climbing FlightAware ADS-B
Fri 05:25:51 AM 40.5030 -102.3850 275° West 433 498 32,000  Level FlightAware ADS-B
Fri 05:26:21 AM 40.5087 -102.4630 276° West 433 498 32,000  Level FlightAware ADS-B
Fri 05:26:52 AM 40.5143 -102.5440 275° West 433 498 32,000  Level FlightAware ADS-B
Fri 05:27:22 AM 40.5198 -102.6230 275° West 432 497 32,000  Level FlightAware ADS-B
Fri 05:27:53 AM 40.5252 -102.7010 275° West 431 496 32,000  Level FlightAware ADS-B
Fri 05:28:23 AM 40.5307 -102.7820 275° West 430 495 32,000  Level FlightAware ADS-B
Fri 05:28:54 AM 40.5361 -102.8620 275° West 430 495 32,000  Level FlightAware ADS-B
Fri 05:29:25 AM 40.5414 -102.9400 275° West 429 494 32,000  Level FlightAware ADS-B
Fri 05:29:55 AM 40.5466 -103.0180 275° West 429 494 32,000  Level FlightAware ADS-B
Fri 05:30:25 AM 40.5517 -103.0950 275° West 428 493 32,000  Level FlightAware ADS-B
Fri 05:30:55 AM 40.5567 -103.1750 275° West 426 490 32,000  Level FlightAware ADS-B
Fri 05:31:25 AM 40.5617 -103.2530 275° West 426 490 32,000  Level FlightAware ADS-B
Fri 05:31:55 AM 40.5666 -103.3300 275° West 426 490 32,000  Level FlightAware ADS-B
Fri 05:32:25 AM 40.5716 -103.4080 275° West 427 491 32,000  Level FlightAware ADS-B
Fri 05:32:57 AM 40.5767 -103.4910 275° West 428 493 32,000  Level FlightAware ADS-B
Fri 05:33:27 AM 40.5815 -103.5690 275° West 429 494 32,000  Level FlightAware ADS-B
Fri 05:33:58 AM 40.5862 -103.6490 274° West 429 494 32,000  Level FlightAware ADS-B
Fri 05:34:28 AM 40.5910 -103.7270 275° West 429 494 32,000  Level FlightAware ADS-B
Fri 05:35:00 AM 40.5960 -103.8100 275° West 430 495 32,000  Level FlightAware ADS-B
Fri 05:35:31 AM 40.6007 -103.8890 275° West 431 496 32,000  Level FlightAware ADS-B
Fri 05:36:01 AM 40.6054 -103.9700 274° West 432 497 32,000  Level FlightAware ADS-B
Fri 05:36:31 AM 40.6098 -104.0480 274° West 432 497 32,000  Level FlightAware ADS-B
Fri 05:37:02 AM 40.6144 -104.1270 274° West 433 498 32,000  Level FlightAware ADS-B
Fri 05:37:32 AM 40.6188 -104.2080 274° West 433 498 32,000  Level FlightAware ADS-B
Fri 05:38:02 AM 40.6231 -104.2870 274° West 432 497 32,000  Level FlightAware ADS-B
Fri 05:38:33 AM 40.6274 -104.3660 274° West 432 497 32,000  Level FlightAware ADS-B
Fri 05:39:03 AM 40.6317 -104.4440 274° West 432 497 32,000  Level FlightAware ADS-B
Fri 05:39:34 AM 40.6359 -104.5260 274° West 433 498 32,000  Level FlightAware ADS-B
Fri 05:40:04 AM 40.6401 -104.6040 274° West 434 499 32,000  Level FlightAware ADS-B
Fri 05:40:34 AM 40.6443 -104.6860 274° West 436 502 32,000  Level FlightAware ADS-B
Fri 05:41:04 AM 40.6484 -104.7660 274° West 437 503 32,000  Level FlightAware ADS-B
Fri 05:41:35 AM 40.6524 -104.8450 274° West 439 505 32,000  Level FlightAware ADS-B
Fri 05:42:06 AM 40.6566 -104.9310 274° West 441 507 32,000  Level FlightAware ADS-B
Fri 05:42:37 AM 40.6605 -105.0110 274° West 441 507 32,000  Level FlightAware ADS-B
Fri 05:43:07 AM 40.6644 -105.0910 274° West 442 509 32,000  Level FlightAware ADS-B
Fri 05:43:42 AM 40.6688 -105.1850 274° West 442 509 32,000  Level FlightAware ADS-B
Fri 05:44:17 AM 40.6733 -105.2820 274° West 443 510 32,000  Level FlightAware ADS-B
Fri 05:44:56 AM 40.6781 -105.3870 273° West 442 509 32,000  Level FlightAware ADS-B
Fri 05:45:26 AM 40.6817 -105.4670 273° West 441 507 32,000  Level FlightAware ADS-B
Fri 05:46:01 AM 40.6858 -105.5580 273° West 441 507 32,000  Level FlightAware ADS-B
Fri 05:46:32 AM 40.6890 -105.6380 273° West 439 505 32,000  Level FlightAware ADS-B
Fri 05:47:27 AM 40.6960 -105.7880 274° West 439 505 32,000 -71 Level FlightAware ADS-B
Fri 05:47:57 AM 40.6990 -105.8630 273° West 442 509 31,900  Descending FlightAware ADS-B
Fri 05:48:37 AM 40.7030 -105.9660 273° West 446 513 32,000 71 Climbing FlightAware ADS-B
Fri 05:49:22 AM 40.7080 -106.0930 273° West 448 516 32,000  Level FlightAware ADS-B
Fri 05:50:02 AM 40.7120 -106.2000 273° West 448 516 32,000  Level FlightAware ADS-B
Fri 05:50:42 AM 40.7160 -106.3090 273° West 447 514 32,000  Level FlightAware ADS-B
Fri 05:51:22 AM 40.7200 -106.4170 273° West 447 514 32,000  Level FlightAware ADS-B
Fri 05:52:07 AM 40.7230 -106.5290 272° West 447 514 32,000  Level FlightAware ADS-B
Fri 05:52:57 AM 40.7290 -106.6760 273° West 445 512 32,000  Level FlightAware ADS-B
Fri 05:53:42 AM 40.7330 -106.8000 272° West 444 511 32,000 -71 Level FlightAware ADS-B
Fri 05:54:22 AM 40.7360 -106.9000 272° West 445 512 31,900 -67 Descending FlightAware ADS-B
Fri 05:55:12 AM 40.7390 -107.0150 272° West 445 512 31,900  Level FlightAware ADS-B
Fri 05:55:52 AM 40.7420 -107.1080 272° West 445 512 31,900  Level FlightAware ADS-B
Fri 05:56:32 AM 40.7440 -107.2000 272° West 445 512 31,900  Level FlightAware ADS-B
Fri 05:57:12 AM 40.7470 -107.2920 272° West 445 512 31,900  Level FlightAware ADS-B
Fri 05:57:52 AM 40.7490 -107.3850 272° West 445 512 31,900  Level FlightAware ADS-B
Fri 05:58:42 AM 40.7520 -107.5000 272° West 445 512 31,900  Level FlightAware ADS-B
Fri 05:59:22 AM 40.7550 -107.5920 272° West 445 512 31,900  Level FlightAware ADS-B
Fri 06:00:02 AM 40.7570 -107.6850 272° West 445 512 31,900  Level FlightAware ADS-B
Fri 06:00:42 AM 40.7590 -107.7770 272° West 445 512 31,900  Level FlightAware ADS-B
Fri 06:01:22 AM 40.7620 -107.8690 272° West 445 512 31,900  Level FlightAware ADS-B
Fri 06:02:12 AM 40.7650 -107.9850 272° West 445 512 31,900  Level FlightAware ADS-B
Fri 06:02:52 AM 40.7670 -108.0770 272° West 445 512 31,900  Level FlightAware ADS-B
Fri 06:03:32 AM 40.7700 -108.1700 272° West 445 512 31,900 71 Level FlightAware ADS-B
Fri 06:04:16 AM 40.7769 -108.5136 272° West 443 510 32,000 58 Climbing Salt Lake Center
Fri 06:05:16 AM 40.7794 -108.6700 271° West 443 510 32,000  Level Salt Lake Center
Fri 06:06:16 AM 40.7819 -108.8272 271° West 444 511 32,000  Level Salt Lake Center
Fri 06:07:17 AM 40.7892 -109.0097 273° West 445 512 32,000  Level Salt Lake Center
Fri 06:08:17 AM 40.8061 -109.1619 278° West 438 504 32,000  Level Salt Lake Center
Fri 06:09:17 AM 40.8283 -109.3244 280° West 436 502 32,000  Level Salt Lake Center
Fri 06:10:17 AM 40.8464 -109.4656 280° West 438 504 32,000  Level Salt Lake Center
Fri 06:11:17 AM 40.8656 -109.6169 280° West 437 503 32,000  Level Salt Lake Center
Fri 06:12:17 AM 40.8883 -109.7964 280° West 441 507 32,000  Level Salt Lake Center
Fri 06:13:17 AM 40.9069 -109.9489 279° West 439 505 32,000  Level Salt Lake Center
Fri 06:14:18 AM 40.9258 -110.1019 279° West 439 505 32,000  Level Salt Lake Center
Fri 06:15:18 AM 40.9447 -110.2567 279° West 443 510 32,000  Level Salt Lake Center
Fri 06:16:18 AM 40.9653 -110.4350 279° West 440 506 32,000 -850 Level Salt Lake Center
Fri 06:17:18 AM 40.9836 -110.5881 279° West 439 505 30,300 -2,000 Descending Salt Lake Center
Fri 06:18:18 AM 41.0014 -110.7392 279° West 422 486 28,000 -1,950 Descending Salt Lake Center
Fri 06:19:18 AM 41.0181 -110.8844 279° West 404 465 26,400 -1,700 Descending Salt Lake Center
Fri 06:20:18 AM 41.0339 -111.0286 278° West 398 458 24,600 -2,267 Descending Salt Lake Center
Fri 06:20:48 AM 41.0397 -111.1081 276° West 401 461 23,000 -2,203 Descending Salt Lake Center
Fri 06:26:12 AM 41.1220 -111.8240 276° West 276 318 11,600 -1,879 Descending FlightAware ADS-B
Fri 06:26:52 AM 41.1290 -111.8890 278° West 267 307 11,600 -494 Level FlightAware ADS-B
Fri 06:27:37 AM 41.1360 -111.9630 277° West 266 306 10,900 -1,059 Descending FlightAware ADS-B
Fri 06:28:17 AM 41.1240 -112.0230 255° West 261 300 10,100 -1,091 Descending FlightAware ADS-B
Fri 06:28:32 AM 41.1090 -112.0330 207° Southwest 255 293 9,900 -873 Descending FlightAware ADS-B
Fri 06:29:12 AM 41.0630 -112.0290 176° South 228 262 9,300 -1,029 Descending FlightAware ADS-B
Fri 06:29:42 AM 41.0340 -112.0250 174° South 215 247 8,700 -1,200 Descending FlightAware ADS-B
Fri 06:30:07 AM 41.0120 -112.0220 174° South 205 236 8,200 -1,527 Descending FlightAware ADS-B
Fri 06:30:37 AM 40.9810 -112.0200 177° South 200 230 7,300 -1,600 Descending FlightAware ADS-B
Fri 06:31:07 AM 40.9540 -112.0170 175° South 194 223 6,600 -1,091 Descending FlightAware ADS-B
Fri 06:31:32 AM 40.9330 -112.0140 174° South 185 213 6,300 -900 Descending FlightAware ADS-B
Fri 06:31:47 AM 40.9200 -112.0120 173° South 181 208 6,000 -933 Descending FlightAware ADS-B
Fri 06:32:17 AM 40.8960 -112.0100 176° South 162 186 5,600 -764 Descending FlightAware ADS-B
Fri 06:32:42 AM 40.8790 -112.0080 175° South 144 166 5,300 -764 Descending FlightAware ADS-B
Fri 06:33:12 AM 40.8590 -112.0050 174° South 141 162 4,900 -764 Descending FlightAware ADS-B
Fri 06:33:37 AM 40.8420 -112.0030 175° South 139 160 4,600 -750 Descending FlightAware ADS-B
Fri 06:33:52 AM 40.8330 -112.0020 175° South 139 160 4,400 -800 Descending FlightAware ADS-B
Fri 06:34:22 AM 40.8130 -112.0000 176° South 134 154 4,000 -800 Descending FlightAware ADS-B

Login

Don't have an account? Register now (free) for customized features, flight alerts, and more!